createdAt,value
2017-06-18T00:02:16.988Z,34.77
2017-06-18T00:04:45.314Z,39.80
2017-06-18T00:07:14.027Z,34.47
2017-06-18T00:09:43.087Z,34.53
2017-06-18T00:12:11.494Z,37.07
2017-06-18T00:14:40.683Z,36.53
2017-06-18T00:17:09.080Z,34.00
2017-06-18T00:19:38.072Z,32.20
2017-06-18T00:22:06.396Z,32.50
2017-06-18T00:24:34.930Z,33.70
2017-06-18T00:27:03.411Z,37.73
2017-06-18T00:29:32.605Z,33.50
2017-06-18T00:32:00.915Z,35.40
2017-06-18T00:34:29.242Z,37.50
2017-06-18T00:36:58.375Z,29.57
2017-06-18T00:39:26.729Z,27.30
2017-06-18T00:41:55.827Z,30.13
2017-06-18T00:44:25.023Z,25.63
2017-06-18T00:46:54.121Z,29.97
2017-06-18T00:49:23.214Z,24.73
2017-06-18T00:51:51.594Z,32.97
2017-06-18T00:54:19.950Z,28.80
2017-06-18T00:56:49.045Z,29.00
2017-06-18T00:59:17.431Z,28.80
2017-06-18T01:01:46.522Z,33.60
2017-06-18T01:04:15.592Z,28.23
2017-06-18T01:06:43.950Z,32.10
2017-06-18T01:09:12.263Z,34.20
2017-06-18T01:11:41.798Z,34.70
2017-06-18T01:14:11.335Z,31.27
2017-06-18T01:16:39.638Z,29.83
2017-06-18T01:19:08.462Z,29.03
2017-06-18T01:21:37.523Z,27.27
2017-06-18T01:24:05.839Z,33.47
2017-06-18T01:26:34.512Z,29.80
2017-06-18T01:29:03.602Z,25.60
2017-06-18T01:31:32.706Z,26.33
2017-06-18T01:34:01.209Z,27.03
2017-06-18T01:36:29.520Z,34.47
2017-06-18T01:38:57.834Z,32.40
2017-06-18T01:41:26.179Z,32.33
2017-06-18T01:43:55.406Z,31.43
2017-06-18T01:46:24.676Z,28.60
2017-06-18T01:48:53.086Z,31.37
2017-06-18T01:51:23.003Z,30.30
2017-06-18T01:53:52.147Z,31.10
2017-06-18T01:56:20.587Z,29.97
2017-06-18T01:58:48.962Z,29.93
2017-06-18T02:01:17.303Z,30.70
2017-06-18T02:03:46.431Z,32.23
2017-06-18T02:06:14.805Z,32.60
2017-06-18T02:08:43.911Z,32.83
2017-06-18T02:11:12.276Z,36.47
2017-06-18T02:13:41.471Z,30.93
2017-06-18T02:16:10.548Z,31.03
2017-06-18T02:18:39.049Z,33.33
2017-06-18T02:21:08.122Z,35.60
2017-06-18T02:23:36.522Z,31.33
2017-06-18T02:26:05.627Z,33.40
2017-06-18T02:28:33.998Z,30.77
2017-06-18T02:31:03.088Z,33.83
2017-06-18T02:33:32.159Z,32.20
2017-06-18T02:36:00.968Z,33.13
2017-06-18T02:38:29.263Z,32.20
2017-06-18T02:40:57.652Z,29.10
2017-06-18T02:43:26.038Z,29.80
2017-06-18T02:45:54.710Z,29.67
2017-06-18T02:48:23.078Z,28.83
2017-06-18T02:50:51.443Z,29.70
2017-06-18T02:53:20.551Z,33.93
2017-06-18T02:55:48.931Z,27.40
2017-06-18T02:58:17.230Z,32.07
2017-06-18T03:00:45.581Z,32.27
2017-06-18T03:03:14.423Z,30.83
2017-06-18T03:05:42.735Z,31.67
2017-06-18T03:08:11.115Z,29.30
2017-06-18T03:10:40.218Z,29.47
2017-06-18T03:13:09.302Z,31.10
2017-06-18T03:15:37.991Z,28.13
2017-06-18T03:18:06.365Z,33.13
2017-06-18T03:20:35.431Z,28.43
2017-06-18T03:23:09.360Z,31.90
2017-06-18T03:25:37.813Z,33.70
2017-06-18T03:28:06.117Z,32.70
2017-06-18T03:30:35.228Z,31.27
2017-06-18T03:33:04.312Z,26.20
2017-06-18T03:35:32.695Z,28.30
2017-06-18T03:38:01.035Z,29.10
2017-06-18T03:40:29.446Z,33.40
2017-06-18T03:42:58.542Z,26.83
2017-06-18T03:45:26.923Z,31.40
2017-06-18T03:47:56.112Z,30.83
2017-06-18T03:50:25.192Z,29.40
2017-06-18T03:52:53.476Z,33.03
2017-06-18T03:55:21.835Z,30.67
2017-06-18T03:57:50.242Z,28.83
2017-06-18T04:00:19.352Z,29.60
2017-06-18T04:02:47.674Z,30.80
2017-06-18T04:05:16.016Z,31.17
2017-06-18T04:10:18.174Z,28.50
2017-06-18T04:12:46.551Z,30.87
2017-06-18T04:15:15.627Z,33.33
2017-06-18T04:17:44.036Z,31.70
2017-06-18T04:20:13.130Z,29.53
2017-06-18T04:22:41.436Z,31.30
2017-06-18T04:25:09.766Z,26.43
2017-06-18T04:27:38.839Z,27.90
2017-06-18T04:30:07.140Z,33.33
2017-06-18T04:32:36.342Z,31.63
2017-06-18T04:35:06.323Z,34.40
2017-06-18T04:37:34.664Z,30.03
2017-06-18T04:40:03.015Z,29.87
2017-06-18T04:42:31.390Z,29.10
2017-06-18T04:44:59.731Z,31.70
2017-06-18T04:47:28.253Z,30.70
2017-06-18T04:49:57.371Z,34.57
2017-06-18T04:52:25.683Z,30.10
2017-06-18T04:54:54.109Z,32.13
2017-06-18T04:57:23.294Z,30.10
2017-06-18T04:59:52.403Z,33.87
2017-06-18T05:02:20.777Z,34.63
2017-06-18T05:04:49.080Z,32.27
2017-06-18T05:07:17.423Z,29.33
2017-06-18T05:09:46.499Z,35.63
2017-06-18T05:12:14.827Z,33.23
2017-06-18T05:14:43.387Z,32.40
2017-06-18T05:17:11.674Z,30.03
2017-06-18T05:19:40.052Z,30.80
2017-06-18T05:22:08.421Z,32.37
2017-06-18T05:24:36.783Z,38.57
2017-06-18T05:27:05.895Z,34.67
2017-06-18T05:29:34.372Z,29.13
2017-06-18T05:32:03.451Z,31.27
2017-06-18T05:34:32.550Z,28.77
2017-06-18T05:37:00.967Z,28.63
2017-06-18T05:39:29.331Z,27.73
2017-06-18T05:41:57.695Z,29.13
2017-06-18T05:44:26.085Z,28.00
2017-06-18T05:46:54.391Z,33.63
2017-06-18T05:49:22.710Z,28.27
2017-06-18T05:51:51.822Z,30.47
2017-06-18T05:54:20.198Z,33.27
2017-06-18T05:56:48.566Z,29.40
2017-06-18T05:59:17.642Z,30.37
2017-06-18T06:01:45.963Z,30.00
2017-06-18T06:04:14.266Z,29.90
2017-06-18T06:06:42.611Z,28.13
2017-06-18T06:09:10.973Z,31.87
2017-06-18T06:11:40.069Z,29.83
2017-06-18T06:14:08.572Z,38.70
2017-06-18T06:16:36.881Z,40.20
2017-06-18T06:19:05.215Z,33.27
2017-06-18T06:21:34.267Z,33.37
2017-06-18T06:24:02.673Z,31.00
2017-06-18T06:26:31.161Z,32.27
2017-06-18T06:29:00.447Z,36.63
2017-06-18T06:31:29.555Z,28.33
2017-06-18T06:33:58.655Z,28.10
2017-06-18T06:36:27.030Z,30.87
2017-06-18T06:38:55.397Z,27.53
2017-06-18T06:41:23.805Z,31.30
2017-06-18T06:43:52.114Z,29.23
2017-06-18T06:46:21.222Z,36.43
2017-06-18T06:48:49.620Z,34.13
2017-06-18T06:51:18.719Z,30.03
2017-06-18T06:53:47.789Z,29.77
2017-06-18T06:56:16.196Z,31.10
2017-06-18T06:58:44.575Z,27.13
2017-06-18T07:01:13.659Z,30.63
2017-06-18T07:03:42.735Z,36.07
2017-06-18T07:06:11.136Z,33.30
2017-06-18T07:08:39.623Z,33.30
2017-06-18T07:11:08.001Z,42.13
2017-06-18T07:13:37.202Z,39.40
2017-06-18T07:16:05.518Z,42.83
2017-06-18T07:18:33.950Z,46.50
2017-06-18T07:21:03.017Z,47.63
2017-06-18T07:23:31.338Z,43.47
2017-06-18T07:25:59.647Z,40.40
2017-06-18T07:28:28.687Z,36.73
2017-06-18T07:30:57.789Z,36.00
2017-06-18T07:33:26.886Z,36.27
2017-06-18T07:35:55.983Z,38.00
2017-06-18T07:38:24.354Z,42.40
2017-06-18T07:40:53.550Z,41.60
2017-06-18T07:43:22.638Z,40.80
2017-06-18T07:45:51.737Z,45.90
2017-06-18T07:48:21.057Z,42.00
2017-06-18T07:50:49.406Z,38.23
2017-06-18T07:53:18.481Z,36.90
2017-06-18T07:55:46.883Z,35.50
2017-06-18T07:58:16.099Z,35.17
2017-06-18T08:00:45.182Z,38.97
2017-06-18T08:03:13.537Z,40.80
2017-06-18T08:05:42.172Z,47.43
2017-06-18T08:08:10.470Z,36.97
2017-06-18T08:10:38.827Z,41.23
2017-06-18T08:13:07.183Z,36.47
2017-06-18T08:15:35.545Z,36.90
2017-06-18T08:18:04.632Z,34.23
2017-06-18T08:20:33.848Z,36.20
2017-06-18T08:23:03.049Z,35.13
2017-06-18T08:25:31.530Z,32.07
2017-06-18T08:27:59.832Z,34.27
2017-06-18T08:30:28.191Z,29.57
2017-06-18T08:32:56.515Z,28.63
2017-06-18T08:35:24.831Z,27.67
2017-06-18T08:37:53.941Z,30.43
2017-06-18T08:40:22.996Z,31.10
2017-06-18T08:42:51.340Z,33.47
2017-06-18T08:45:20.148Z,36.10
2017-06-18T08:47:48.463Z,34.33
2017-06-18T08:50:17.546Z,34.80
2017-06-18T08:52:45.937Z,37.50
2017-06-18T08:55:14.275Z,31.27
2017-06-18T08:57:43.418Z,33.17
2017-06-18T09:00:11.760Z,27.57
2017-06-18T09:02:40.164Z,27.30
2017-06-18T09:05:08.518Z,31.03
2017-06-18T09:07:36.839Z,27.80
2017-06-18T09:10:05.147Z,26.70
2017-06-18T09:12:33.473Z,27.20
2017-06-18T09:15:02.538Z,30.47
2017-06-18T09:17:30.879Z,26.73
2017-06-18T09:19:59.201Z,27.13
2017-06-18T09:22:27.497Z,27.87
2017-06-18T09:24:56.999Z,23.67
2017-06-18T09:27:25.392Z,20.30
2017-06-18T09:29:53.712Z,21.57
2017-06-18T09:32:21.995Z,24.70
2017-06-18T09:34:50.411Z,30.00
2017-06-18T09:37:18.726Z,34.13
2017-06-18T09:39:47.075Z,28.97
2017-06-18T09:42:15.400Z,25.83
2017-06-18T09:44:44.334Z,20.70
2017-06-18T09:47:13.544Z,20.50
2017-06-18T09:49:42.632Z,23.53
2017-06-18T09:52:11.924Z,25.23
2017-06-18T09:54:40.312Z,25.83
2017-06-18T09:57:08.618Z,28.27
2017-06-18T09:59:36.975Z,30.37
2017-06-18T10:02:05.320Z,30.60
2017-06-18T10:04:34.024Z,27.27
2017-06-18T10:07:02.351Z,27.90
2017-06-18T10:09:30.677Z,24.90
2017-06-18T10:11:59.069Z,27.70
2017-06-18T10:14:27.482Z,30.00
2017-06-18T10:16:56.016Z,29.17
2017-06-18T10:19:24.327Z,28.00
2017-06-18T10:21:58.614Z,25.33
2017-06-18T10:24:26.988Z,26.20
2017-06-18T10:26:55.315Z,25.87
2017-06-18T10:29:23.636Z,24.40
2017-06-18T10:31:52.011Z,30.40
2017-06-18T10:34:20.802Z,30.27
2017-06-18T10:36:49.179Z,31.20
2017-06-18T10:39:17.683Z,31.53
2017-06-18T10:41:46.243Z,25.80
2017-06-18T10:44:14.569Z,22.80
2017-06-18T10:46:42.903Z,20.67
2017-06-18T10:49:12.091Z,23.10
2017-06-18T10:51:40.402Z,27.10
2017-06-18T10:54:08.740Z,27.10
2017-06-18T10:56:37.094Z,28.93
2017-06-18T10:59:05.698Z,28.23
2017-06-18T11:01:34.026Z,28.50
2017-06-18T11:04:02.350Z,29.40
2017-06-18T11:06:31.602Z,23.27
2017-06-18T11:08:59.951Z,27.83
2017-06-18T11:11:28.734Z,24.67
2017-06-18T11:13:57.072Z,21.90
2017-06-18T11:16:25.890Z,23.30
2017-06-18T11:18:54.663Z,20.43
2017-06-18T11:21:22.995Z,23.30
2017-06-18T11:23:51.308Z,26.43
2017-06-18T11:26:19.627Z,27.27
2017-06-18T11:28:47.941Z,23.77
2017-06-18T11:31:16.472Z,20.70
2017-06-18T11:33:44.815Z,24.00
2017-06-18T11:36:13.943Z,20.40
2017-06-18T11:38:42.275Z,22.90
2017-06-18T11:41:10.798Z,21.47
2017-06-18T11:43:39.173Z,27.37
2017-06-18T11:46:08.297Z,27.57
2017-06-18T11:48:37.139Z,28.03
2017-06-18T11:51:06.243Z,25.07
2017-06-18T11:53:35.342Z,22.60
2017-06-18T11:56:03.673Z,24.90
2017-06-18T11:58:31.999Z,24.20
2017-06-18T12:01:01.096Z,22.50
2017-06-18T12:03:29.477Z,22.73
2017-06-18T12:05:58.789Z,24.60
2017-06-18T12:08:27.252Z,24.30
2017-06-18T12:10:56.340Z,21.90
2017-06-18T12:13:25.444Z,22.00
2017-06-18T12:15:53.930Z,24.37
2017-06-18T12:18:22.234Z,25.80
2017-06-18T12:20:50.555Z,26.43
2017-06-18T12:23:18.886Z,22.83
2017-06-18T12:25:47.192Z,22.13
2017-06-18T12:28:15.527Z,23.43
2017-06-18T12:30:43.895Z,26.60
2017-06-18T12:33:13.278Z,27.03
2017-06-18T12:35:41.557Z,23.90
2017-06-18T12:38:10.038Z,19.87
2017-06-18T12:40:38.403Z,26.53
2017-06-18T12:43:06.799Z,25.13
2017-06-18T12:45:35.182Z,31.13
2017-06-18T12:48:03.502Z,32.80
2017-06-18T12:50:31.799Z,30.90
2017-06-18T12:53:00.149Z,24.90
2017-06-18T12:55:28.591Z,23.23
2017-06-18T12:57:57.651Z,20.13
2017-06-18T13:00:26.874Z,24.30
2017-06-18T13:02:55.972Z,24.57
2017-06-18T13:05:24.354Z,32.50
2017-06-18T13:07:52.731Z,28.97
2017-06-18T13:10:21.114Z,23.37
2017-06-18T13:12:50.182Z,21.63
2017-06-18T13:15:19.395Z,29.60
2017-06-18T13:17:48.500Z,37.97
2017-06-18T13:20:16.844Z,25.33
2017-06-18T13:22:45.172Z,40.17
2017-06-18T13:25:13.625Z,31.23
2017-06-18T13:27:42.719Z,33.27
2017-06-18T13:30:11.079Z,29.13
2017-06-18T13:32:39.467Z,24.97
2017-06-18T13:35:07.801Z,31.30
2017-06-18T13:37:36.126Z,23.40
2017-06-18T13:40:04.473Z,19.80
2017-06-18T13:42:32.828Z,20.53
2017-06-18T13:45:01.159Z,24.03
2017-06-18T13:47:29.545Z,27.97
2017-06-18T13:50:31.711Z,30.27
2017-06-18T13:53:00.092Z,28.37
2017-06-18T13:55:28.463Z,23.20
2017-06-18T13:57:57.658Z,29.30
2017-06-18T14:00:26.047Z,26.80
2017-06-18T14:02:54.357Z,26.50
2017-06-18T14:05:22.710Z,24.97
2017-06-18T14:07:51.900Z,25.23
2017-06-18T14:10:20.266Z,26.40
2017-06-18T14:12:49.344Z,30.73
2017-06-18T14:15:17.739Z,33.07
2017-06-18T14:17:46.844Z,32.50
2017-06-18T14:20:15.160Z,25.90
2017-06-18T14:22:43.608Z,26.33
2017-06-18T14:25:12.692Z,26.67
2017-06-18T14:27:41.080Z,31.40
2017-06-18T14:30:09.431Z,27.37
2017-06-18T14:32:37.818Z,26.60
2017-06-18T14:35:06.927Z,22.80
2017-06-18T14:37:35.990Z,27.67
2017-06-18T14:40:05.123Z,24.40
2017-06-18T14:42:33.460Z,29.47
2017-06-18T14:45:01.756Z,27.87
2017-06-18T14:47:30.876Z,24.10
2017-06-18T14:49:59.235Z,26.63
2017-06-18T14:52:27.599Z,27.63
2017-06-18T14:54:56.707Z,24.30
2017-06-18T14:57:25.065Z,25.43
2017-06-18T14:59:53.463Z,27.70
2017-06-18T15:02:21.791Z,21.97
2017-06-18T15:04:50.216Z,27.93
2017-06-18T15:07:18.591Z,28.13
2017-06-18T15:09:46.978Z,29.47
2017-06-18T15:12:16.563Z,32.27
2017-06-18T15:14:44.894Z,30.73
2017-06-18T15:17:13.271Z,24.70
2017-06-18T15:19:41.579Z,29.80
2017-06-18T15:22:10.207Z,33.60
2017-06-18T15:24:38.578Z,30.27
2017-06-18T15:27:07.667Z,33.77
2017-06-18T15:29:35.986Z,38.57
2017-06-18T15:32:04.306Z,30.10
2017-06-18T15:34:33.524Z,31.10
2017-06-18T15:37:02.587Z,26.07
2017-06-18T15:39:31.719Z,24.53
2017-06-18T15:42:00.074Z,28.00
2017-06-18T15:44:28.414Z,21.87
2017-06-18T15:46:56.798Z,27.80
2017-06-18T15:49:25.139Z,26.90
2017-06-18T15:51:53.464Z,31.87
2017-06-18T15:54:21.748Z,37.53
2017-06-18T15:56:50.086Z,30.17
2017-06-18T15:59:18.532Z,26.77
2017-06-18T16:01:50.128Z,26.70
2017-06-18T16:04:19.293Z,31.77
2017-06-18T16:06:47.763Z,29.33
2017-06-18T16:09:16.843Z,40.47
2017-06-18T16:11:45.232Z,35.10
2017-06-18T16:14:13.558Z,33.20
2017-06-18T16:16:41.867Z,44.27
2017-06-18T16:19:12.112Z,46.60
2017-06-18T16:21:40.383Z,52.83
2017-06-18T16:24:09.451Z,47.30
2017-06-18T16:26:38.174Z,90.63
2017-06-18T16:29:06.544Z,81.63
2017-06-18T16:31:34.924Z,48.70
2017-06-18T16:34:03.316Z,51.53
2017-06-18T16:36:31.611Z,46.33
2017-06-18T16:38:59.951Z,47.40
2017-06-18T16:41:29.064Z,52.63
2017-06-18T16:43:57.398Z,45.53
2017-06-18T16:46:26.526Z,48.80
2017-06-18T16:48:54.898Z,38.37
2017-06-18T16:51:23.272Z,37.20
2017-06-18T16:53:52.380Z,51.30
2017-06-18T16:56:21.031Z,44.67
2017-06-18T16:58:49.436Z,47.80
2017-06-18T17:01:17.808Z,42.73
2017-06-18T17:03:46.289Z,44.63
2017-06-18T17:06:14.684Z,45.97
2017-06-18T17:08:42.987Z,44.97
2017-06-18T17:11:11.287Z,41.10
2017-06-18T17:13:39.742Z,33.47
2017-06-18T17:16:08.051Z,35.60
2017-06-18T17:18:37.139Z,35.07
2017-06-18T17:21:11.155Z,39.67
2017-06-18T17:23:40.247Z,35.37
2017-06-18T17:26:08.581Z,35.37
2017-06-18T17:28:36.936Z,26.47
2017-06-18T17:31:05.280Z,20.90
2017-06-18T17:33:33.591Z,33.40
2017-06-18T17:36:02.783Z,33.80
2017-06-18T17:38:32.054Z,26.20
2017-06-18T17:41:00.402Z,34.40
2017-06-18T17:43:28.836Z,34.87
2017-06-18T17:45:57.907Z,34.83
2017-06-18T17:48:27.044Z,35.17
2017-06-18T17:50:55.411Z,36.50
2017-06-18T17:53:23.916Z,36.77
2017-06-18T17:55:52.210Z,32.37
2017-06-18T17:58:20.764Z,38.27
2017-06-18T18:00:49.091Z,42.73
2017-06-18T18:03:17.495Z,30.03
2017-06-18T18:05:46.592Z,26.90
2017-06-18T18:08:14.907Z,30.00
2017-06-18T18:10:43.354Z,21.17
2017-06-18T18:13:11.667Z,18.30
2017-06-18T18:15:40.009Z,20.70
2017-06-18T18:18:08.454Z,17.03
2017-06-18T18:20:36.793Z,16.00
2017-06-18T18:23:05.443Z,20.53
2017-06-18T18:25:33.823Z,15.60
2017-06-18T18:28:02.926Z,16.37
2017-06-18T18:30:31.996Z,18.60
2017-06-18T18:33:01.287Z,17.30
2017-06-18T18:35:29.657Z,17.70
2017-06-18T18:37:57.972Z,16.17
2017-06-18T18:40:26.368Z,14.13
2017-06-18T18:42:54.731Z,13.40
2017-06-18T18:45:23.083Z,17.60
2017-06-18T18:47:51.434Z,13.93
2017-06-18T18:50:19.716Z,14.60
2017-06-18T18:52:48.058Z,13.87
2017-06-18T18:55:16.390Z,13.50
2017-06-18T18:57:44.710Z,14.37
2017-06-18T19:00:13.038Z,14.70
2017-06-18T19:02:42.346Z,16.40
2017-06-18T19:05:11.431Z,16.67
2017-06-18T19:07:39.834Z,18.20
2017-06-18T19:10:08.182Z,19.40
2017-06-18T19:12:36.513Z,20.60
2017-06-18T19:15:04.969Z,15.33
2017-06-18T19:17:33.459Z,18.40
2017-06-18T19:20:02.521Z,18.50
2017-06-18T19:22:30.920Z,15.43
2017-06-18T19:25:00.000Z,13.67
2017-06-18T19:27:29.279Z,14.10
2017-06-18T19:29:57.660Z,13.23
2017-06-18T19:32:25.987Z,15.37
2017-06-18T19:34:54.351Z,14.10
2017-06-18T19:37:23.421Z,12.97
2017-06-18T19:39:51.790Z,14.57
2017-06-18T19:42:20.120Z,14.20
2017-06-18T19:44:48.666Z,14.07
2017-06-18T19:47:17.427Z,13.33
2017-06-18T19:49:45.760Z,13.93
2017-06-18T19:52:14.295Z,14.33
2017-06-18T19:54:42.603Z,16.43
2017-06-18T19:57:10.982Z,14.07
2017-06-18T19:59:39.309Z,12.37
2017-06-18T20:02:07.658Z,12.93
2017-06-18T20:04:35.976Z,12.37
2017-06-18T20:07:04.301Z,13.17
2017-06-18T20:09:32.662Z,13.80
2017-06-18T20:12:01.729Z,10.63
2017-06-18T20:14:30.357Z,13.10
2017-06-18T20:16:58.731Z,14.10
2017-06-18T20:19:27.821Z,10.63
2017-06-18T20:21:56.138Z,15.33
2017-06-18T20:24:24.512Z,11.07
2017-06-18T20:26:52.816Z,13.13
2017-06-18T20:29:21.142Z,14.47
2017-06-18T20:31:49.518Z,13.20
2017-06-18T20:34:17.872Z,12.37
2017-06-18T20:36:46.371Z,11.93
2017-06-18T20:39:14.682Z,11.87
2017-06-18T20:41:42.999Z,13.03
2017-06-18T20:44:11.710Z,13.60
2017-06-18T20:46:40.075Z,13.90
2017-06-18T20:49:08.451Z,12.53
2017-06-18T20:51:36.829Z,13.07
2017-06-18T20:54:05.162Z,12.20
2017-06-18T20:56:33.582Z,14.20
2017-06-18T20:59:02.435Z,11.77
2017-06-18T21:01:30.848Z,12.53
2017-06-18T21:03:59.987Z,11.43
2017-06-18T21:06:28.323Z,15.60
2017-06-18T21:08:56.706Z,13.73
2017-06-18T21:11:25.018Z,13.57
2017-06-18T21:13:53.354Z,14.60
2017-06-18T21:16:21.686Z,12.53
2017-06-18T21:18:50.102Z,14.80
2017-06-18T21:21:19.190Z,13.73
2017-06-18T21:23:47.486Z,13.90
2017-06-18T21:26:15.824Z,14.30
2017-06-18T21:28:44.136Z,13.70
2017-06-18T21:31:13.215Z,13.23
2017-06-18T21:33:41.490Z,13.10
2017-06-18T21:36:10.000Z,13.23
2017-06-18T21:38:39.086Z,13.17
2017-06-18T21:41:07.456Z,10.73
2017-06-18T21:43:35.838Z,12.93
2017-06-18T21:46:04.927Z,13.97
2017-06-18T21:48:34.015Z,11.07
2017-06-18T21:51:02.326Z,12.73
2017-06-18T21:53:30.642Z,13.47
2017-06-18T21:55:58.968Z,12.70
2017-06-18T21:58:27.318Z,17.00
2017-06-18T22:00:56.427Z,12.97
2017-06-18T22:03:24.738Z,12.20
2017-06-18T22:05:53.091Z,12.50
2017-06-18T22:08:22.190Z,14.47
2017-06-18T22:10:50.515Z,13.00
2017-06-18T22:13:18.876Z,12.87
2017-06-18T22:15:47.919Z,14.27
2017-06-18T22:18:16.300Z,14.73
2017-06-18T22:20:44.687Z,15.17
2017-06-18T22:23:13.016Z,14.50
2017-06-18T22:25:41.351Z,13.63
2017-06-18T22:28:09.706Z,11.60
2017-06-18T22:30:38.794Z,13.00
2017-06-18T22:33:08.002Z,13.53
2017-06-18T22:35:37.087Z,14.20
2017-06-18T22:38:05.441Z,14.83
2017-06-18T22:40:33.914Z,12.63
2017-06-18T22:43:02.236Z,12.63
2017-06-18T22:45:30.699Z,13.23
2017-06-18T22:47:59.772Z,14.73
2017-06-18T22:50:28.196Z,13.80
2017-06-18T22:52:57.976Z,13.07
2017-06-18T22:55:26.487Z,13.97
2017-06-18T22:57:54.834Z,14.70
2017-06-18T23:00:23.145Z,12.80
2017-06-18T23:02:51.520Z,14.50
2017-06-18T23:05:20.569Z,14.67
2017-06-18T23:07:48.899Z,15.90
2017-06-18T23:10:17.267Z,14.80
2017-06-18T23:12:45.640Z,16.00
2017-06-18T23:15:13.991Z,14.10
2017-06-18T23:17:42.297Z,13.73
2017-06-18T23:20:10.667Z,15.00
2017-06-18T23:22:39.761Z,16.40
2017-06-18T23:25:08.856Z,13.67
2017-06-18T23:27:38.053Z,15.10
2017-06-18T23:30:06.430Z,13.97
2017-06-18T23:32:35.536Z,15.47
2017-06-18T23:35:03.867Z,16.13
2017-06-18T23:37:32.199Z,15.93
2017-06-18T23:40:00.560Z,16.47
2017-06-18T23:42:29.036Z,16.33
2017-06-18T23:44:57.421Z,14.27
2017-06-18T23:47:26.479Z,14.87
2017-06-18T23:49:54.849Z,15.90
2017-06-18T23:52:23.172Z,14.67
2017-06-18T23:54:51.487Z,13.57
2017-06-18T23:57:19.928Z,13.87
2017-06-18T23:59:49.001Z,14.10
